Time;durP1;ratioP1;P1;durP2;ratioP2;P2;SDS_P1;SDS_P2;PMS_P1;PMS_P2;Temp;Humidity;BMP_temperature;BMP_pressure;BME280_temperature;BME280_humidity;BME280_pressure;Samples;Min_cycle;Max_cycle;Signal;HPM_P1;HPM_P2
2023/03/02 00:01:30;;;;;;;11.33;7.50;;;-3.60;99.90;-4.20;101438.00;;;;4933090;28;92806;-64
2023/03/02 00:03:57;;;;;;;15.70;8.73;;;-3.60;99.90;-4.20;101443.00;;;;4932530;28;93160;-64
2023/03/02 00:06:25;;;;;;;14.17;8.83;;;-3.50;99.90;-4.20;101449.00;;;;4914558;28;121668;-63
2023/03/02 00:08:51;;;;;;;18.70;8.50;;;-3.50;99.90;-4.20;101451.00;;;;4933613;28;92885;-64
2023/03/02 00:11:18;;;;;;;14.67;8.30;;;-3.60;99.90;-4.30;101446.00;;;;4930638;28;108814;-63
2023/03/02 00:13:44;;;;;;;10.97;7.57;;;-3.70;99.90;-4.30;101456.00;;;;4920630;28;123021;-63
2023/03/02 00:16:10;;;;;;;16.30;8.47;;;-3.80;99.90;-4.40;101455.00;;;;4931032;28;120844;-64
2023/03/02 00:18:35;;;;;;;14.17;7.87;;;-3.10;99.90;-4.40;101450.00;;;;4932871;28;92981;-63
2023/03/02 00:21:01;;;;;;;12.93;7.93;;;-2.90;99.90;-4.40;101455.00;;;;4932130;28;109228;-64
2023/03/02 00:23:26;;;;;;;14.77;8.57;;;-3.90;99.90;-4.40;101446.00;;;;4932082;28;124192;-64
2023/03/02 00:25:52;;;;;;;13.37;7.97;;;-3.80;99.90;-4.40;101435.00;;;;4926451;28;122172;-64
2023/03/02 00:28:18;;;;;;;15.60;8.30;;;-3.80;99.90;-4.40;101431.00;;;;4931878;28;99017;-63
2023/03/02 00:30:44;;;;;;;16.73;8.73;;;-3.90;99.90;-4.40;101439.00;;;;4933250;28;107031;-63
2023/03/02 00:33:09;;;;;;;14.67;7.67;;;-3.90;99.90;-4.50;101442.00;;;;4932749;28;122703;-64
2023/03/02 00:35:40;;;;;;;19.10;7.73;;;-3.90;99.90;-4.50;101448.00;;;;4929985;28;122875;-64
2023/03/02 00:38:06;;;;;;;14.73;9.13;;;-4.00;99.90;-4.50;101440.00;;;;4932611;28;93754;-63
2023/03/02 00:40:33;;;;;;;12.50;7.13;;;-4.00;99.90;-4.50;101441.00;;;;4932475;28;94226;-63
2023/03/02 00:42:59;;;;;;;14.10;8.43;;;-3.90;99.90;-4.50;101436.00;;;;4933622;28;94776;-64
2023/03/02 00:45:25;;;;;;;15.43;7.93;;;-4.00;99.90;-4.50;101430.00;;;;4932992;28;123324;-63
2023/03/02 00:47:50;;;;;;;8.90;7.37;;;-4.70;99.90;-4.50;101425.00;;;;4934151;28;96285;-63
2023/03/02 00:50:16;;;;;;;13.23;8.03;;;-4.00;99.90;-4.50;101425.00;;;;4931946;28;106997;-64
2023/03/02 00:52:42;;;;;;;12.50;7.57;;;-4.00;99.90;-4.50;101419.00;;;;4932238;28;115173;-63
2023/03/02 00:55:08;;;;;;;12.37;7.30;;;-4.10;99.90;-4.60;101417.00;;;;4930558;28;122551;-64
2023/03/02 00:57:34;;;;;;;9.83;7.37;;;-3.70;99.90;-4.60;101407.00;;;;4944867;28;92933;-63
2023/03/02 01:00:00;;;;;;;12.13;7.30;;;-4.00;99.90;-4.60;101420.00;;;;4930439;28;93845;-63
2023/03/02 01:02:26;;;;;;;13.20;7.87;;;-4.10;99.90;-4.70;101412.00;;;;4930726;28;122882;-63
2023/03/02 01:04:52;;;;;;;13.03;8.37;;;-4.20;99.90;-4.70;101406.00;;;;4931228;28;93782;-64
2023/03/02 01:07:25;;;;;;;10.73;7.80;;;-4.10;99.90;-4.70;101407.00;;;;4932746;28;92968;-63
2023/03/02 01:09:51;;;;;;;11.53;7.60;;;-4.20;99.90;-4.70;101408.00;;;;4933259;28;92883;-63
2023/03/02 01:12:17;;;;;;;12.40;7.77;;;-4.20;99.90;-4.70;101409.00;;;;4930612;28;109311;-62
2023/03/02 01:14:47;;;;;;;11.03;7.20;;;-4.20;99.90;-4.80;101404.00;;;;4931702;28;106284;-61
2023/03/02 01:17:13;;;;;;;19.00;7.57;;;-4.20;99.90;-4.80;101406.00;;;;4932243;28;92290;-64
2023/03/02 01:19:40;;;;;;;10.53;6.83;;;-4.20;99.90;-4.80;101407.00;;;;4932879;28;94157;-63
2023/03/02 01:22:06;;;;;;;17.67;7.93;;;-4.10;99.90;-4.80;101396.00;;;;4912752;28;114424;-63
2023/03/02 01:24:32;;;;;;;12.20;6.97;;;-4.20;99.90;-4.80;101400.00;;;;4914910;28;94125;-63
2023/03/02 01:26:58;;;;;;;12.97;7.77;;;-4.20;99.90;-4.80;101392.00;;;;4932450;28;93063;-63
2023/03/02 01:29:24;;;;;;;13.23;7.53;;;-4.20;99.90;-4.90;101408.00;;;;4931101;28;107547;-63
2023/03/02 01:31:49;;;;;;;14.53;7.90;;;-4.20;99.90;-4.90;101380.00;;;;4931613;28;123588;-63
2023/03/02 01:34:15;;;;;;;10.37;7.03;;;-4.30;99.90;-4.80;101377.00;;;;4931478;28;122288;-63
2023/03/02 01:36:44;;;;;;;17.63;8.10;;;-4.30;99.90;-4.80;101374.00;;;;4931851;28;92967;-63
2023/03/02 01:39:14;;;;;;;15.00;8.00;;;-4.30;99.90;-4.80;101373.00;;;;4931798;28;93259;-64
2023/03/02 01:41:42;;;;;;;14.17;7.77;;;-4.30;99.90;-4.80;101366.00;;;;4931690;28;92231;-63
2023/03/02 01:44:46;;;;;;;15.57;8.83;;;-4.30;99.90;-4.80;101363.00;;;;4932516;28;93078;-63
2023/03/02 01:47:25;;;;;;;12.63;8.70;;;-4.10;99.90;-4.80;101368.00;;;;4931582;28;93084;-64
2023/03/02 01:50:05;;;;;;;18.73;8.43;;;-4.20;99.90;-4.70;101359.00;;;;4930396;28;93793;-63
2023/03/02 01:52:33;;;;;;;19.30;11.87;;;-4.10;99.90;-4.60;101361.00;;;;4898573;28;115522;-63
2023/03/02 01:55:03;;;;;;;21.67;9.50;;;-4.10;99.90;-4.60;101346.00;;;;4913793;28;105727;-63
2023/03/02 01:57:42;;;;;;;13.73;8.33;;;-4.00;99.90;-4.60;101349.00;;;;4912525;28;92944;-64
2023/03/02 02:00:13;;;;;;;16.00;8.60;;;-4.00;99.90;-4.50;101347.00;;;;4930976;28;93702;-64
2023/03/02 02:02:40;;;;;;;18.07;8.37;;;-4.00;99.90;-4.60;101349.00;;;;4913557;28;105124;-64
2023/03/02 02:05:09;;;;;;;14.63;7.87;;;-4.00;99.90;-4.50;101349.00;;;;4913712;28;93143;-64
2023/03/02 02:07:35;;;;;;;12.90;8.47;;;-4.00;99.90;-4.60;101344.00;;;;4913976;28;95520;-64
2023/03/02 02:10:02;;;;;;;14.90;8.73;;;-4.00;99.90;-4.60;101339.00;;;;4916465;28;101301;-64
2023/03/02 02:12:28;;;;;;;14.50;8.87;;;-4.00;99.90;-4.60;101331.00;;;;4931007;28;94221;-64
2023/03/02 02:14:59;;;;;;;13.67;7.77;;;-3.90;99.90;-4.60;101343.00;;;;4930740;28;111763;-64
2023/03/02 02:17:25;;;;;;;13.23;8.60;;;-3.90;99.90;-4.60;101336.00;;;;4931420;28;93264;-64
2023/03/02 02:20:37;;;;;;;14.83;8.73;;;-4.10;99.90;-4.80;101326.00;;;;4929958;28;98626;-64
2023/03/02 02:23:27;;;;;;;12.10;7.47;;;-4.20;99.90;-4.80;101334.00;;;;4873736;28;93675;-64
2023/03/02 02:25:54;;;;;;;17.83;8.50;;;-4.20;99.90;-4.80;101323.00;;;;4928483;28;93027;-64
2023/03/02 02:28:27;;;;;;;14.30;7.97;;;-4.30;99.90;-4.80;101330.00;;;;4927537;28;92999;-64
2023/03/02 02:31:13;;;;;;;13.37;8.43;;;-4.20;99.90;-4.80;101326.00;;;;4929488;28;102222;-64
2023/03/02 02:33:43;;;;;;;15.00;6.90;;;-2.90;99.90;-4.80;101329.00;;;;4926924;28;92437;-64
2023/03/02 02:36:19;;;;;;;16.33;9.23;;;-4.30;99.90;-4.90;101324.00;;;;4911359;28;115558;-64
2023/03/02 02:38:49;;;;;;;11.23;8.27;;;-4.20;99.90;-4.90;101335.00;;;;4913500;28;93078;-64
2023/03/02 02:41:25;;;;;;;12.63;8.40;;;-4.30;99.90;-4.90;101322.00;;;;4910743;28;101899;-64
2023/03/02 02:43:51;;;;;;;13.23;8.37;;;-4.40;99.90;-4.90;101324.00;;;;4914351;28;93586;-64
2023/03/02 02:46:16;;;;;;;15.10;7.83;;;-4.40;99.90;-5.00;101321.00;;;;4927576;28;120905;-64
2023/03/02 02:48:42;;;;;;;12.77;8.40;;;-4.50;99.90;-5.00;101329.00;;;;4929610;28;108645;-65
2023/03/02 02:51:14;;;;;;;15.77;8.27;;;-4.40;99.90;-5.00;101331.00;;;;4931142;28;108604;-64
2023/03/02 02:53:57;;;;;;;16.13;7.90;;;-4.40;99.90;-5.00;101329.00;;;;4930869;28;112621;-64
2023/03/02 02:56:29;;;;;;;12.27;8.67;;;-4.40;99.90;-5.00;101329.00;;;;4913472;28;93015;-64
2023/03/02 02:59:01;;;;;;;22.20;9.50;;;-4.50;99.90;-5.00;101320.00;;;;4912440;28;92743;-64
2023/03/02 03:01:27;;;;;;;14.50;6.90;;;-4.40;99.90;-5.00;101332.00;;;;4930183;28;93134;-64
2023/03/02 03:03:57;;;;;;;13.43;8.90;;;-4.30;99.90;-5.00;101322.00;;;;4929924;28;93135;-64
2023/03/02 03:06:37;;;;;;;13.27;8.10;;;-4.50;99.90;-5.10;101332.00;;;;4930653;28;93985;-64
2023/03/02 03:09:05;;;;;;;14.93;8.20;;;-4.50;99.90;-5.10;101311.00;;;;4916712;28;93040;-65
2023/03/02 03:11:35;;;;;;;12.93;7.60;;;-4.50;99.90;-5.10;101321.00;;;;4933328;28;93336;-65
2023/03/02 03:14:15;;;;;;;14.03;8.60;;;-4.50;99.90;-5.20;101314.00;;;;4916740;28;93050;-65
2023/03/02 03:16:44;;;;;;;13.87;8.30;;;-4.40;99.90;-5.10;101311.00;;;;4916947;28;93099;-65
2023/03/02 03:19:27;;;;;;;18.20;8.27;;;-4.50;99.90;-5.20;101313.00;;;;4932335;28;93769;-64
2023/03/02 03:22:00;;;;;;;14.63;8.70;;;-5.20;99.90;-5.20;101325.00;;;;4933929;28;92992;-64
2023/03/02 03:24:30;;;;;;;16.87;8.60;;;-4.50;99.90;-5.20;101311.00;;;;4932317;28;113429;-64
2023/03/02 03:26:56;;;;;;;11.30;8.27;;;-4.50;99.90;-5.10;101310.00;;;;4934297;28;92891;-64
2023/03/02 03:29:25;;;;;;;16.07;8.23;;;-4.50;99.90;-5.10;101314.00;;;;4933994;28;92898;-65
2023/03/02 03:31:53;;;;;;;14.97;9.10;;;-4.60;99.90;-5.10;101308.00;;;;4931280;28;93979;-64
2023/03/02 03:34:19;;;;;;;19.70;10.13;;;-4.70;99.90;-5.10;101321.00;;;;4931290;28;115811;-64
2023/03/02 03:36:46;;;;;;;17.13;9.20;;;-4.60;99.90;-5.00;101315.00;;;;4932016;28;123834;-64
2023/03/02 03:39:14;;;;;;;17.77;9.57;;;-4.50;99.90;-5.10;101315.00;;;;4933808;28;92922;-64
2023/03/02 03:41:40;;;;;;;20.53;10.87;;;-4.50;99.90;-5.10;101314.00;;;;4931258;28;92853;-64
2023/03/02 03:44:06;;;;;;;20.57;10.20;;;-4.50;99.90;-5.10;101318.00;;;;4932202;28;122871;-64
2023/03/02 03:46:32;;;;;;;19.10;11.27;;;-4.60;99.90;-5.10;101313.00;;;;4932205;28;123094;-64
2023/03/02 03:48:58;;;;;;;16.53;10.13;;;-4.50;99.90;-5.10;101304.00;;;;4933030;28;96582;-65
2023/03/02 03:51:24;;;;;;;22.43;11.30;;;-4.50;99.90;-5.10;101310.00;;;;4934917;28;92937;-64
2023/03/02 03:53:59;;;;;;;20.40;10.20;;;-4.40;99.90;-5.10;101318.00;;;;4932344;28;112387;-64
2023/03/02 03:56:32;;;;;;;17.07;10.87;;;-4.50;99.90;-5.10;101302.00;;;;4932409;28;93880;-64
2023/03/02 03:59:07;;;;;;;29.70;16.97;;;-3.50;99.90;-5.10;101304.00;;;;4932827;28;93077;-64
2023/03/02 04:01:48;;;;;;;17.33;10.17;;;-4.50;99.90;-5.10;101316.00;;;;4933115;28;92832;-64
2023/03/02 04:04:20;;;;;;;19.57;9.37;;;-4.60;99.90;-5.10;101311.00;;;;4932668;28;93795;-64
2023/03/02 04:06:45;;;;;;;11.70;8.37;;;-4.50;99.90;-5.10;101308.00;;;;4932504;28;93181;-64
2023/03/02 04:09:14;;;;;;;14.83;8.87;;;-4.50;99.90;-5.10;101317.00;;;;4932315;28;109750;-64
2023/03/02 04:11:42;;;;;;;13.93;8.13;;;-4.50;99.90;-5.10;101306.00;;;;4931224;28;92925;-64
2023/03/02 04:14:08;;;;;;;17.57;8.97;;;-4.50;99.90;-5.10;101298.00;;;;4933326;28;93807;-63
2023/03/02 04:16:36;;;;;;;21.33;8.63;;;-4.60;99.90;-5.20;101306.00;;;;4932129;28;93119;-63
2023/03/02 04:19:02;;;;;;;14.97;8.70;;;-4.60;99.90;-5.10;101303.00;;;;4931337;28;92899;-63
2023/03/02 04:21:29;;;;;;;13.60;8.27;;;-4.60;99.90;-5.10;101293.00;;;;4931595;28;93855;-63
2023/03/02 04:23:55;;;;;;;15.23;8.73;;;-4.60;99.90;-5.10;101306.00;;;;4933170;28;107683;-64
2023/03/02 04:26:20;;;;;;;19.13;11.87;;;-4.50;99.90;-5.10;101298.00;;;;4913745;28;94836;-63
2023/03/02 04:28:49;;;;;;;21.33;10.43;;;-4.50;99.90;-5.10;101304.00;;;;4933159;28;93496;-63
2023/03/02 04:31:15;;;;;;;13.50;8.53;;;-4.50;99.90;-5.10;101297.00;;;;4931341;28;92853;-63
2023/03/02 04:33:41;;;;;;;23.40;10.93;;;-4.50;99.90;-5.10;101298.00;;;;4933131;28;117142;-63
2023/03/02 04:36:07;;;;;;;45.77;23.87;;;-4.50;99.90;-5.10;101290.00;;;;4930270;28;123142;-64
2023/03/02 04:38:33;;;;;;;28.77;15.33;;;-4.50;99.90;-5.10;101293.00;;;;4931571;28;98753;-63
2023/03/02 04:40:59;;;;;;;13.47;8.83;;;-4.50;99.90;-5.10;101290.00;;;;4933609;28;109391;-63
2023/03/02 04:43:25;;;;;;;17.47;10.43;;;-4.60;99.90;-5.10;101292.00;;;;4932505;28;94168;-63
2023/03/02 04:45:52;;;;;;;19.00;9.77;;;-4.40;99.90;-5.20;101279.00;;;;4931542;28;94090;-63
2023/03/02 04:48:18;;;;;;;19.43;10.23;;;-4.50;99.90;-5.20;101295.00;;;;4932479;28;104566;-63
2023/03/02 04:50:44;;;;;;;23.93;10.73;;;-4.50;99.90;-5.20;101297.00;;;;4932269;28;92902;-64
2023/03/02 04:53:10;;;;;;;16.70;10.20;;;-4.70;99.90;-5.20;101278.00;;;;4930413;28;122163;-63
2023/03/02 04:55:37;;;;;;;23.20;11.83;;;-4.60;99.90;-5.20;101286.00;;;;4929992;28;93884;-63
2023/03/02 04:58:02;;;;;;;18.33;10.27;;;-4.50;99.90;-5.20;101298.00;;;;4931547;28;95054;-63
2023/03/02 05:00:28;;;;;;;13.77;9.77;;;-4.50;99.90;-5.20;101284.00;;;;4931398;28;104293;-62
2023/03/02 05:02:54;;;;;;;21.37;11.83;;;-4.60;99.90;-5.20;101282.00;;;;4932922;28;120788;-64
2023/03/02 05:05:23;;;;;;;18.83;11.17;;;-4.70;99.90;-5.30;101292.00;;;;4932265;28;93071;-63
2023/03/02 05:07:49;;;;;;;21.93;10.53;;;-4.70;99.90;-5.30;101286.00;;;;4930459;28;93264;-63
2023/03/02 05:10:17;;;;;;;21.00;10.93;;;-4.70;99.90;-5.30;101286.00;;;;4931168;28;93864;-63
2023/03/02 05:13:01;;;;;;;15.17;9.70;;;-4.70;99.90;-5.40;101292.00;;;;4928939;28;93742;-65
2023/03/02 05:15:34;;;;;;;17.90;10.60;;;-4.60;99.90;-5.40;101286.00;;;;4932133;28;93503;-63
2023/03/02 05:18:01;;;;;;;22.17;11.57;;;-4.80;99.90;-5.50;101285.00;;;;4930660;28;92815;-63
2023/03/02 05:20:29;;;;;;;54.13;26.80;;;-4.90;99.90;-5.50;101295.00;;;;4929001;28;97161;-63
2023/03/02 05:22:57;;;;;;;33.37;16.03;;;-4.90;99.90;-5.50;101280.00;;;;4929420;28;93956;-63
2023/03/02 05:25:24;;;;;;;23.13;13.30;;;-5.00;99.90;-5.50;101287.00;;;;4929742;28;93580;-63
2023/03/02 05:27:49;;;;;;;29.20;15.33;;;-4.90;99.90;-5.50;101290.00;;;;4931152;28;104034;-63
2023/03/02 05:30:15;;;;;;;34.20;18.63;;;-4.90;99.90;-5.60;101286.00;;;;4929649;28;96035;-63
2023/03/02 05:32:41;;;;;;;33.63;17.40;;;-5.00;99.90;-5.60;101288.00;;;;4929711;28;112959;-64
2023/03/02 05:35:07;;;;;;;40.87;19.27;;;-5.00;99.90;-5.60;101282.00;;;;4928684;28;121356;-63
2023/03/02 05:37:33;;;;;;;29.57;14.70;;;-5.10;99.90;-5.60;101290.00;;;;4928063;28;105776;-63
2023/03/02 05:39:59;;;;;;;26.90;14.97;;;-5.00;99.90;-5.60;101284.00;;;;4928299;28;94528;-64
2023/03/02 05:42:25;;;;;;;30.10;16.13;;;-5.00;99.90;-5.60;101279.00;;;;4927665;28;111147;-63
2023/03/02 05:44:50;;;;;;;26.50;14.97;;;-5.00;99.90;-5.60;101287.00;;;;4924803;28;93036;-63
2023/03/02 05:47:16;;;;;;;20.63;12.27;;;-5.00;99.90;-5.60;101284.00;;;;4925183;28;111816;-63
2023/03/02 05:49:42;;;;;;;26.90;13.33;;;-5.00;99.90;-5.60;101283.00;;;;4927258;28;106344;-63
2023/03/02 05:52:07;;;;;;;17.20;10.30;;;-4.90;99.90;-5.50;101268.00;;;;4926402;28;120804;-63
2023/03/02 05:54:33;;;;;;;22.93;11.77;;;-5.00;99.90;-5.50;101273.00;;;;4929579;28;121189;-63
2023/03/02 05:56:59;;;;;;;21.00;11.57;;;-5.00;99.90;-5.50;101278.00;;;;4926724;28;113001;-63
2023/03/02 05:59:24;;;;;;;19.07;12.43;;;-5.00;99.90;-5.50;101277.00;;;;4928229;28;94627;-63
2023/03/02 06:01:53;;;;;;;19.67;12.10;;;-5.00;99.90;-5.50;101282.00;;;;4924352;28;121935;-63
2023/03/02 06:04:19;;;;;;;28.67;12.23;;;-5.00;99.90;-5.50;101288.00;;;;4926570;28;93467;-63
2023/03/02 06:06:44;;;;;;;21.53;12.47;;;-4.90;99.90;-5.50;101286.00;;;;4925232;28;111787;-63
2023/03/02 06:09:10;;;;;;;24.87;11.67;;;-4.90;99.90;-5.50;101288.00;;;;4924919;28;109050;-63
2023/03/02 06:11:36;;;;;;;17.20;10.50;;;-4.90;99.90;-5.40;101290.00;;;;4925916;28;122272;-63
2023/03/02 06:14:01;;;;;;;98.07;48.37;;;-4.80;99.90;-5.30;101292.00;;;;4922374;28;123140;-63
2023/03/02 06:16:27;;;;;;;35.73;16.13;;;-4.80;99.90;-5.20;101294.00;;;;4927211;28;112967;-64
2023/03/02 06:18:53;;;;;;;24.07;13.13;;;-4.80;99.90;-5.10;101289.00;;;;4928658;28;93300;-64
2023/03/02 06:21:18;;;;;;;23.27;11.37;;;-4.60;99.90;-5.00;101297.00;;;;4936986;28;122040;-63
2023/03/02 06:23:44;;;;;;;24.87;11.47;;;-4.50;99.90;-4.90;101302.00;;;;4925204;28;124108;-63
2023/03/02 06:26:11;;;;;;;23.00;11.43;;;-4.40;99.90;-4.70;101314.00;;;;4926302;28;111311;-63
2023/03/02 06:28:37;;;;;;;22.43;11.93;;;-4.30;99.90;-4.60;101301.00;;;;4926330;28;93168;-63
2023/03/02 06:31:03;;;;;;;19.10;12.33;;;-4.10;99.90;-4.40;101298.00;;;;4923744;28;93407;-64
2023/03/02 06:33:29;;;;;;;25.03;13.40;;;-3.80;99.90;-4.10;101303.00;;;;4926199;28;100050;-64
2023/03/02 06:35:55;;;;;;;26.53;13.53;;;-3.70;99.90;-3.90;101306.00;;;;4927912;28;92839;-63
2023/03/02 06:38:21;;;;;;;21.43;12.23;;;-3.40;99.90;-3.80;101314.00;;;;4925921;28;93157;-63
2023/03/02 06:40:47;;;;;;;23.03;12.50;;;-3.60;99.90;-3.50;101302.00;;;;4925518;28;110983;-63
2023/03/02 06:43:13;;;;;;;19.13;10.77;;;-3.10;99.90;-3.30;101307.00;;;;4926169;28;116169;-64
2023/03/02 06:45:39;;;;;;;22.07;11.73;;;-2.90;99.90;-3.10;101310.00;;;;4928553;28;93103;-64
2023/03/02 06:48:05;;;;;;;23.43;12.10;;;-2.70;99.90;-2.90;101307.00;;;;4925422;28;97841;-64
2023/03/02 06:50:31;;;;;;;24.23;11.00;;;-2.50;99.90;-2.60;101326.00;;;;4924274;28;111734;-64
2023/03/02 06:52:57;;;;;;;33.80;16.40;;;-2.20;99.90;-2.40;101319.00;;;;4925518;28;94318;-64
2023/03/02 06:55:23;;;;;;;31.93;20.50;;;-2.10;99.90;-2.20;101314.00;;;;4926174;28;114176;-63
2023/03/02 06:57:49;;;;;;;33.63;17.83;;;-1.80;99.90;-2.00;101324.00;;;;4925222;28;102320;-64
2023/03/02 07:00:16;;;;;;;25.93;14.30;;;-1.70;99.90;-1.80;101332.00;;;;4929706;28;93136;-63
2023/03/02 07:02:43;;;;;;;20.50;11.80;;;-1.40;99.90;-1.50;101319.00;;;;4934984;28;93069;-63
2023/03/02 07:05:09;;;;;;;17.10;11.17;;;-1.20;99.90;-1.30;101314.00;;;;4927313;28;92344;-63
2023/03/02 07:07:35;;;;;;;16.87;11.03;;;-0.90;99.90;-1.10;101331.00;;;;4926536;28;97096;-63
2023/03/02 07:10:02;;;;;;;21.53;11.80;;;-0.70;99.90;-0.80;101324.00;;;;4926810;28;93171;-63
2023/03/02 07:12:28;;;;;;;18.93;10.87;;;-0.50;99.90;-0.60;101324.00;;;;4925593;28;94761;-63
2023/03/02 07:14:54;;;;;;;16.17;10.07;;;-0.30;99.90;-0.30;101320.00;;;;4924472;28;113226;-63
2023/03/02 07:17:20;;;;;;;17.63;10.13;;;0.00;99.90;-0.10;101318.00;;;;4927501;28;92820;-63
2023/03/02 07:19:45;;;;;;;11.93;8.40;;;0.20;99.90;0.10;101318.00;;;;4926665;28;93028;-64
2023/03/02 07:22:11;;;;;;;19.53;11.10;;;0.50;99.90;0.40;101322.00;;;;4924060;28;122655;-64
2023/03/02 07:24:36;;;;;;;22.20;9.07;;;0.60;99.90;0.60;101321.00;;;;4924978;28;110397;-64
2023/03/02 07:27:03;;;;;;;14.47;9.40;;;0.80;99.90;0.80;101330.00;;;;4926357;28;93189;-65
2023/03/02 07:29:28;;;;;;;19.67;11.37;;;1.00;99.90;1.00;101325.00;;;;4911348;28;92323;-65
2023/03/02 07:31:58;;;;;;;19.93;10.00;;;1.20;99.90;1.20;101323.00;;;;4925360;28;121927;-65
2023/03/02 07:34:24;;;;;;;19.40;10.43;;;1.90;99.90;1.40;101332.00;;;;4926862;28;92850;-66
2023/03/02 07:36:51;;;;;;;13.50;8.83;;;1.60;99.90;1.50;101323.00;;;;4926517;28;107397;-65
2023/03/02 07:39:17;;;;;;;11.30;7.30;;;1.90;99.90;1.80;101327.00;;;;4928181;28;93610;-66
2023/03/02 07:41:42;;;;;;;16.03;9.37;;;2.10;99.90;2.10;101336.00;;;;4927543;28;115472;-65
2023/03/02 07:44:08;;;;;;;12.57;8.27;;;2.30;99.90;2.30;101332.00;;;;4928774;28;99731;-65
2023/03/02 07:46:34;;;;;;;14.43;8.73;;;2.50;99.90;2.60;101339.00;;;;4926238;28;109759;-65
2023/03/02 07:49:00;;;;;;;12.70;8.60;;;2.80;99.90;2.90;101338.00;;;;4926635;28;120005;-65
2023/03/02 07:51:25;;;;;;;17.60;8.77;;;3.10;99.90;3.20;101333.00;;;;4925753;28;93662;-67
2023/03/02 07:53:51;;;;;;;12.07;8.00;;;3.30;99.90;3.30;101347.00;;;;4894811;28;100200;-64
2023/03/02 07:56:17;;;;;;;14.13;8.07;;;3.60;99.90;3.60;101339.00;;;;4926018;28;110015;-66
2023/03/02 07:58:43;;;;;;;15.13;8.83;;;3.70;99.90;3.80;101343.00;;;;4928257;28;94028;-67
2023/03/02 08:01:08;;;;;;;16.27;9.27;;;4.00;99.90;4.10;101341.00;;;;4926288;28;122425;-66
2023/03/02 08:03:35;;;;;;;16.80;9.43;;;4.20;99.90;4.30;101347.00;;;;4929782;28;109929;-65
2023/03/02 08:06:10;;;;;;;16.30;10.43;;;4.40;99.90;4.50;101347.00;;;;4930272;28;93231;-63
2023/03/02 08:08:36;;;;;;;24.67;11.03;;;4.70;99.90;4.70;101350.00;;;;4928190;28;93208;-65
2023/03/02 08:11:08;;;;;;;24.50;11.07;;;4.80;99.90;4.80;101340.00;;;;4928429;28;94405;-65
2023/03/02 08:13:34;;;;;;;17.63;10.93;;;5.00;99.90;5.10;101348.00;;;;4928257;28;93187;-64
2023/03/02 08:16:03;;;;;;;17.60;10.77;;;5.20;99.90;5.20;101345.00;;;;4927788;28;110278;-65
2023/03/02 08:18:29;;;;;;;23.53;11.80;;;6.20;99.90;5.40;101347.00;;;;4928214;28;93936;-64
2023/03/02 08:20:55;;;;;;;15.97;10.37;;;6.30;99.90;5.50;101348.00;;;;4928405;28;93195;-64
2023/03/02 08:23:21;;;;;;;21.00;10.73;;;6.40;99.70;5.60;101348.00;;;;4926912;28;93105;-67
2023/03/02 08:25:47;;;;;;;19.93;11.33;;;5.90;98.90;5.80;101347.00;;;;4928455;28;109884;-65
2023/03/02 08:28:12;;;;;;;19.67;11.10;;;6.40;98.90;6.00;101346.00;;;;4923563;28;122673;-63
2023/03/02 08:30:38;;;;;;;17.53;9.97;;;6.20;98.40;6.30;101350.00;;;;4927481;28;122646;-63
2023/03/02 08:33:04;;;;;;;17.07;10.20;;;6.40;97.60;6.40;101339.00;;;;4928508;28;92747;-63
2023/03/02 08:35:30;;;;;;;17.07;10.60;;;6.60;95.90;6.50;101337.00;;;;4928882;28;93003;-63
2023/03/02 08:37:55;;;;;;;21.40;10.90;;;6.70;94.60;6.60;101337.00;;;;4927776;28;123083;-65
2023/03/02 08:40:21;;;;;;;15.50;10.03;;;7.50;94.10;6.70;101350.00;;;;4928134;28;109586;-64
2023/03/02 08:42:48;;;;;;;13.67;9.37;;;6.80;93.60;6.90;101338.00;;;;4926478;28;113486;-63
2023/03/02 08:45:15;;;;;;;20.60;10.43;;;7.10;93.50;7.10;101341.00;;;;4929115;28;93044;-65
2023/03/02 08:47:40;;;;;;;12.17;10.17;;;7.20;91.80;7.30;101338.00;;;;4929572;28;93211;-65
2023/03/02 08:50:07;;;;;;;19.30;9.93;;;7.40;91.30;7.50;101342.00;;;;4926840;28;121492;-63
2023/03/02 08:52:35;;;;;;;15.97;9.87;;;7.60;91.50;7.70;101348.00;;;;4928771;28;92919;-64
2023/03/02 08:55:01;;;;;;;21.80;11.23;;;7.80;91.30;8.10;101335.00;;;;4926864;28;107686;-63
2023/03/02 08:57:27;;;;;;;11.03;7.73;;;8.10;91.60;8.50;101345.00;;;;4926994;28;122486;-65
2023/03/02 08:59:52;;;;;;;18.93;10.47;;;8.40;90.60;8.70;101337.00;;;;4926148;28;121519;-63
2023/03/02 09:02:18;;;;;;;19.17;10.67;;;8.70;87.90;8.70;101331.00;;;;4927502;28;110474;-64
2023/03/02 09:04:44;;;;;;;20.90;10.53;;;8.80;82.70;8.70;101330.00;;;;4927591;28;109169;-64
2023/03/02 09:07:09;;;;;;;12.83;8.80;;;8.80;82.20;8.80;101320.00;;;;4927949;28;121981;-64
2023/03/02 09:09:35;;;;;;;18.43;9.13;;;8.90;83.20;9.00;101316.00;;;;4927959;28;99307;-66
2023/03/02 09:12:01;;;;;;;14.03;8.97;;;9.10;82.60;9.30;101328.00;;;;4928576;28;111301;-66
2023/03/02 09:14:27;;;;;;;16.20;9.37;;;9.30;82.40;9.50;101318.00;;;;4928234;28;107348;-67
2023/03/02 09:16:54;;;;;;;21.10;11.20;;;9.50;77.70;9.50;101316.00;;;;4926968;28;94270;-65
2023/03/02 09:19:20;;;;;;;16.73;10.40;;;9.60;73.90;9.60;101317.00;;;;4927623;28;123556;-65
2023/03/02 09:21:45;;;;;;;17.97;10.10;;;9.60;75.90;9.80;101317.00;;;;4928274;28;111868;-64
2023/03/02 09:24:11;;;;;;;17.27;10.47;;;9.80;76.60;10.00;101329.00;;;;4928624;28;92977;-66
2023/03/02 09:26:37;;;;;;;16.63;9.53;;;10.00;75.00;10.20;101324.00;;;;4927036;28;123704;-66
2023/03/02 09:29:05;;;;;;;15.30;9.23;;;10.20;71.60;10.20;101326.00;;;;4926465;28;94091;-65
2023/03/02 09:31:31;;;;;;;17.60;9.33;;;10.30;70.30;10.40;101320.00;;;;4928425;28;93472;-65
2023/03/02 09:33:57;;;;;;;21.83;10.17;;;10.30;70.60;10.60;101329.00;;;;4929765;28;93114;-65
2023/03/02 09:36:24;;;;;;;23.47;9.43;;;10.50;70.30;10.70;101327.00;;;;4927570;28;120490;-64
2023/03/02 09:38:50;;;;;;;16.30;8.60;;;10.70;68.60;10.80;101330.00;;;;4923031;28;112255;-66
2023/03/02 09:41:18;;;;;;;19.20;10.60;;;10.80;65.50;10.90;101326.00;;;;4929247;28;110114;-65
2023/03/02 09:44:26;;;;;;;13.03;8.33;;;10.80;63.60;10.90;101329.00;;;;4929369;28;93023;-65
2023/03/02 09:47:38;;;;;;;12.50;7.67;;;10.90;63.90;11.10;101318.00;;;;4927866;28;92989;-65
2023/03/02 09:50:32;;;;;;;10.93;7.63;;;11.10;62.90;11.40;101325.00;;;;4903514;28;95063;-65
2023/03/02 09:53:31;;;;;;;14.07;9.13;;;11.30;63.20;11.60;101327.00;;;;4927564;28;92939;-65
2023/03/02 09:55:59;;;;;;;17.63;8.30;;;11.50;59.00;11.70;101326.00;;;;4928410;28;93701;-65
2023/03/02 09:58:34;;;;;;;17.30;8.83;;;11.70;58.60;11.90;101317.00;;;;4924766;28;94099;-65
2023/03/02 10:01:03;;;;;;;12.83;8.17;;;11.80;57.60;12.10;101320.00;;;;4925983;28;92842;-65
2023/03/02 10:03:39;;;;;;;15.60;7.97;;;11.90;58.30;12.30;101311.00;;;;4927849;28;93811;-67
2023/03/02 10:06:05;;;;;;;9.80;7.20;;;12.20;55.00;12.30;101314.00;;;;4925147;28;93755;-66
2023/03/02 10:08:36;;;;;;;14.17;8.07;;;12.20;54.90;12.40;101312.00;;;;4928404;28;113868;-66
2023/03/02 10:11:23;;;;;;;14.17;7.93;;;12.20;54.00;12.50;101310.00;;;;4927336;28;93654;-64
2023/03/02 10:13:59;;;;;;;15.87;7.80;;;12.40;54.90;12.80;101315.00;;;;4925676;28;93116;-65
2023/03/02 10:16:44;;;;;;;17.93;7.33;;;12.60;54.80;13.10;101310.00;;;;4912809;28;92947;-65
2023/03/02 10:19:26;;;;;;;14.20;8.00;;;12.80;54.80;13.40;101310.00;;;;4926263;28;95509;-66
2023/03/02 10:22:26;;;;;;;13.07;8.13;;;13.10;55.00;13.70;101303.00;;;;4909584;28;108135;-65
2023/03/02 10:25:13;;;;;;;11.60;7.77;;;13.40;53.50;13.90;101302.00;;;;4929774;28;92235;-65
2023/03/02 10:27:42;;;;;;;17.70;8.73;;;13.70;53.80;14.10;101294.00;;;;4910346;28;100993;-66
2023/03/02 10:30:26;;;;;;;10.57;7.07;;;13.80;52.40;14.10;101296.00;;;;4929030;28;95730;-66
2023/03/02 10:32:55;;;;;;;9.83;7.07;;;13.90;50.60;14.10;101291.00;;;;4910517;28;94231;-65
2023/03/02 10:35:26;;;;;;;8.40;6.53;;;13.80;50.10;14.20;101295.00;;;;4926495;28;104315;-66
2023/03/02 10:37:59;;;;;;;15.27;7.67;;;13.90;50.40;14.20;101292.00;;;;4926610;28;92988;-65
2023/03/02 10:40:41;;;;;;;14.53;7.67;;;14.00;49.50;14.30;101297.00;;;;4911617;28;92914;-66
2023/03/02 10:43:24;;;;;;;12.07;6.33;;;14.10;50.30;14.50;101294.00;;;;4927781;28;93547;-66
2023/03/02 10:46:08;;;;;;;14.23;7.60;;;14.20;50.70;14.80;101295.00;;;;4926949;28;93244;-63